sensor_id;sensor_type;location;lat;lon;timestamp;temperature;humidity
12604;DHT22;6367;52.508;13.284;2024-02-23T00:02:04;13.60;99.90
12604;DHT22;6367;52.508;13.284;2024-02-23T00:04:30;13.70;99.90
12604;DHT22;6367;52.508;13.284;2024-02-23T00:06:56;13.70;99.90
12604;DHT22;6367;52.508;13.284;2024-02-23T00:09:22;13.60;99.90
12604;DHT22;6367;52.508;13.284;2024-02-23T00:11:47;13.70;99.90
12604;DHT22;6367;52.508;13.284;2024-02-23T00:14:15;13.70;99.90
12604;DHT22;6367;52.508;13.284;2024-02-23T00:16:43;13.70;99.90
12604;DHT22;6367;52.508;13.284;2024-02-23T00:19:09;13.70;99.90
12604;DHT22;6367;52.508;13.284;2024-02-23T00:21:36;13.70;99.90
12604;DHT22;6367;52.508;13.284;2024-02-23T00:24:02;13.70;99.90
12604;DHT22;6367;52.508;13.284;2024-02-23T00:26:28;13.80;99.90
12604;DHT22;6367;52.508;13.284;2024-02-23T00:28:55;13.80;99.90
12604;DHT22;6367;52.508;13.284;2024-02-23T00:31:21;13.90;99.90
12604;DHT22;6367;52.508;13.284;2024-02-23T00:33:46;13.90;99.90
12604;DHT22;6367;52.508;13.284;2024-02-23T00:36:12;13.90;99.90
12604;DHT22;6367;52.508;13.284;2024-02-23T00:38:38;13.90;99.90
12604;DHT22;6367;52.508;13.284;2024-02-23T00:41:04;13.90;99.90
12604;DHT22;6367;52.508;13.284;2024-02-23T00:43:36;13.90;99.90
12604;DHT22;6367;52.508;13.284;2024-02-23T00:46:03;13.90;99.90
12604;DHT22;6367;52.508;13.284;2024-02-23T00:48:29;13.80;99.90
12604;DHT22;6367;52.508;13.284;2024-02-23T00:50:55;14.40;99.90
12604;DHT22;6367;52.508;13.284;2024-02-23T00:53:21;13.90;99.90
12604;DHT22;6367;52.508;13.284;2024-02-23T00:55:47;14.00;99.90
12604;DHT22;6367;52.508;13.284;2024-02-23T00:58:13;13.90;99.90
12604;DHT22;6367;52.508;13.284;2024-02-23T01:00:38;13.90;99.90
12604;DHT22;6367;52.508;13.284;2024-02-23T01:03:04;13.80;99.90
12604;DHT22;6367;52.508;13.284;2024-02-23T01:05:30;13.80;99.90
12604;DHT22;6367;52.508;13.284;2024-02-23T01:07:56;13.80;99.90
12604;DHT22;6367;52.508;13.284;2024-02-23T01:10:21;13.80;99.90
12604;DHT22;6367;52.508;13.284;2024-02-23T01:12:47;13.80;99.90
12604;DHT22;6367;52.508;13.284;2024-02-23T01:15:13;13.80;99.90
12604;DHT22;6367;52.508;13.284;2024-02-23T01:17:38;13.80;99.90
12604;DHT22;6367;52.508;13.284;2024-02-23T01:20:05;13.90;99.90
12604;DHT22;6367;52.508;13.284;2024-02-23T01:22:31;13.90;99.90
12604;DHT22;6367;52.508;13.284;2024-02-23T01:24:56;14.00;99.90
12604;DHT22;6367;52.508;13.284;2024-02-23T01:27:22;13.90;99.90
12604;DHT22;6367;52.508;13.284;2024-02-23T01:29:48;13.90;99.90
12604;DHT22;6367;52.508;13.284;2024-02-23T01:32:13;14.00;99.90
12604;DHT22;6367;52.508;13.284;2024-02-23T01:34:39;14.10;99.90
12604;DHT22;6367;52.508;13.284;2024-02-23T01:37:05;14.10;99.90
12604;DHT22;6367;52.508;13.284;2024-02-23T01:39:30;14.10;99.90
12604;DHT22;6367;52.508;13.284;2024-02-23T01:41:56;14.30;99.90
12604;DHT22;6367;52.508;13.284;2024-02-23T01:44:22;14.20;99.90
12604;DHT22;6367;52.508;13.284;2024-02-23T01:46:48;14.20;99.90
12604;DHT22;6367;52.508;13.284;2024-02-23T01:49:14;14.30;99.90
12604;DHT22;6367;52.508;13.284;2024-02-23T01:51:40;14.40;99.90
12604;DHT22;6367;52.508;13.284;2024-02-23T01:54:06;14.40;99.90
12604;DHT22;6367;52.508;13.284;2024-02-23T01:56:32;14.30;99.90
12604;DHT22;6367;52.508;13.284;2024-02-23T01:59:00;14.40;99.90
12604;DHT22;6367;52.508;13.284;2024-02-23T02:01:29;14.40;99.90
12604;DHT22;6367;52.508;13.284;2024-02-23T02:03:55;14.50;99.90
12604;DHT22;6367;52.508;13.284;2024-02-23T02:06:22;14.60;99.90
12604;DHT22;6367;52.508;13.284;2024-02-23T02:08:48;14.50;99.90
12604;DHT22;6367;52.508;13.284;2024-02-23T02:11:14;14.50;99.90
12604;DHT22;6367;52.508;13.284;2024-02-23T02:13:40;14.50;99.90
12604;DHT22;6367;52.508;13.284;2024-02-23T02:16:06;14.60;99.90
12604;DHT22;6367;52.508;13.284;2024-02-23T02:18:32;14.60;99.90
12604;DHT22;6367;52.508;13.284;2024-02-23T02:20:58;14.60;99.90
12604;DHT22;6367;52.508;13.284;2024-02-23T02:23:25;14.60;99.90
12604;DHT22;6367;52.508;13.284;2024-02-23T02:25:54;14.50;99.90
12604;DHT22;6367;52.508;13.284;2024-02-23T02:28:20;14.50;99.90
12604;DHT22;6367;52.508;13.284;2024-02-23T02:30:46;14.40;99.90
12604;DHT22;6367;52.508;13.284;2024-02-23T02:33:11;14.50;99.90
12604;DHT22;6367;52.508;13.284;2024-02-23T02:35:37;14.50;99.90
12604;DHT22;6367;52.508;13.284;2024-02-23T02:38:03;14.50;99.90
12604;DHT22;6367;52.508;13.284;2024-02-23T02:40:28;14.50;99.90
12604;DHT22;6367;52.508;13.284;2024-02-23T02:42:54;14.30;99.90
12604;DHT22;6367;52.508;13.284;2024-02-23T02:45:20;14.30;99.90
12604;DHT22;6367;52.508;13.284;2024-02-23T02:47:46;14.20;99.90
12604;DHT22;6367;52.508;13.284;2024-02-23T02:50:12;14.20;99.90
12604;DHT22;6367;52.508;13.284;2024-02-23T02:52:37;14.20;99.90
12604;DHT22;6367;52.508;13.284;2024-02-23T02:55:03;14.10;99.90
12604;DHT22;6367;52.508;13.284;2024-02-23T02:57:29;14.10;99.90
12604;DHT22;6367;52.508;13.284;2024-02-23T02:59:55;14.10;99.90
12604;DHT22;6367;52.508;13.284;2024-02-23T03:02:21;14.10;99.90
12604;DHT22;6367;52.508;13.284;2024-02-23T03:04:50;14.00;99.90
12604;DHT22;6367;52.508;13.284;2024-02-23T03:07:19;13.90;99.90
12604;DHT22;6367;52.508;13.284;2024-02-23T03:09:44;14.00;99.90
12604;DHT22;6367;52.508;13.284;2024-02-23T03:12:10;14.00;99.90
12604;DHT22;6367;52.508;13.284;2024-02-23T03:14:36;13.90;99.90
12604;DHT22;6367;52.508;13.284;2024-02-23T03:17:07;13.90;99.90
12604;DHT22;6367;52.508;13.284;2024-02-23T03:19:32;13.80;99.90
12604;DHT22;6367;52.508;13.284;2024-02-23T03:21:58;13.80;99.90
12604;DHT22;6367;52.508;13.284;2024-02-23T03:24:24;13.70;99.90
12604;DHT22;6367;52.508;13.284;2024-02-23T03:26:50;13.70;99.90
12604;DHT22;6367;52.508;13.284;2024-02-23T03:29:15;13.60;99.90
12604;DHT22;6367;52.508;13.284;2024-02-23T03:31:41;13.60;99.90
12604;DHT22;6367;52.508;13.284;2024-02-23T03:34:07;13.60;99.90
12604;DHT22;6367;52.508;13.284;2024-02-23T03:36:34;13.60;99.90
12604;DHT22;6367;52.508;13.284;2024-02-23T03:39:00;13.50;99.90
12604;DHT22;6367;52.508;13.284;2024-02-23T03:41:26;13.60;99.90
12604;DHT22;6367;52.508;13.284;2024-02-23T03:43:51;13.60;99.30
12604;DHT22;6367;52.508;13.284;2024-02-23T03:46:17;13.50;99.30
12604;DHT22;6367;52.508;13.284;2024-02-23T03:48:44;13.50;99.20
12604;DHT22;6367;52.508;13.284;2024-02-23T03:51:10;13.50;99.20
12604;DHT22;6367;52.508;13.284;2024-02-23T03:53:35;13.50;99.30
12604;DHT22;6367;52.508;13.284;2024-02-23T03:56:01;13.40;98.90
12604;DHT22;6367;52.508;13.284;2024-02-23T03:58:27;13.40;99.10
12604;DHT22;6367;52.508;13.284;2024-02-23T04:00:52;13.40;99.40
12604;DHT22;6367;52.508;13.284;2024-02-23T04:03:18;13.40;99.40
12604;DHT22;6367;52.508;13.284;2024-02-23T04:05:44;13.40;99.40
12604;DHT22;6367;52.508;13.284;2024-02-23T04:08:09;13.40;99.40
12604;DHT22;6367;52.508;13.284;2024-02-23T04:10:35;13.40;99.40
12604;DHT22;6367;52.508;13.284;2024-02-23T04:13:01;13.40;99.70
12604;DHT22;6367;52.508;13.284;2024-02-23T04:15:27;13.40;99.90
12604;DHT22;6367;52.508;13.284;2024-02-23T04:17:53;13.50;99.70
12604;DHT22;6367;52.508;13.284;2024-02-23T04:20:18;13.50;99.50
12604;DHT22;6367;52.508;13.284;2024-02-23T04:22:44;13.30;99.40
12604;DHT22;6367;52.508;13.284;2024-02-23T04:25:10;12.50;99.40
12604;DHT22;6367;52.508;13.284;2024-02-23T04:27:35;13.30;99.80
12604;DHT22;6367;52.508;13.284;2024-02-23T04:30:02;13.30;99.70
12604;DHT22;6367;52.508;13.284;2024-02-23T04:32:28;13.20;99.60
12604;DHT22;6367;52.508;13.284;2024-02-23T04:34:53;13.30;99.50
12604;DHT22;6367;52.508;13.284;2024-02-23T04:37:19;13.30;98.80
12604;DHT22;6367;52.508;13.284;2024-02-23T04:39:44;13.40;98.40
12604;DHT22;6367;52.508;13.284;2024-02-23T04:42:10;13.30;98.30
12604;DHT22;6367;52.508;13.284;2024-02-23T04:44:36;13.30;98.10
12604;DHT22;6367;52.508;13.284;2024-02-23T04:47:02;13.10;98.40
12604;DHT22;6367;52.508;13.284;2024-02-23T04:49:28;13.10;98.40
12604;DHT22;6367;52.508;13.284;2024-02-23T04:51:54;13.20;98.40
12604;DHT22;6367;52.508;13.284;2024-02-23T04:54:20;13.20;98.20
12604;DHT22;6367;52.508;13.284;2024-02-23T04:56:46;13.20;98.20
12604;DHT22;6367;52.508;13.284;2024-02-23T04:59:13;13.10;97.90
12604;DHT22;6367;52.508;13.284;2024-02-23T05:01:38;13.10;97.80
12604;DHT22;6367;52.508;13.284;2024-02-23T05:04:04;13.00;98.00
12604;DHT22;6367;52.508;13.284;2024-02-23T05:06:30;13.00;98.00
12604;DHT22;6367;52.508;13.284;2024-02-23T05:08:56;13.00;98.00
12604;DHT22;6367;52.508;13.284;2024-02-23T05:11:22;13.10;97.90
12604;DHT22;6367;52.508;13.284;2024-02-23T05:13:48;13.10;98.00
12604;DHT22;6367;52.508;13.284;2024-02-23T05:16:14;13.10;98.10
12604;DHT22;6367;52.508;13.284;2024-02-23T05:18:40;13.00;97.90
12604;DHT22;6367;52.508;13.284;2024-02-23T05:21:07;13.00;97.40
12604;DHT22;6367;52.508;13.284;2024-02-23T05:23:32;12.90;97.00
12604;DHT22;6367;52.508;13.284;2024-02-23T05:25:58;12.90;97.00
12604;DHT22;6367;52.508;13.284;2024-02-23T05:28:24;12.90;97.10
12604;DHT22;6367;52.508;13.284;2024-02-23T05:30:50;12.90;97.10
12604;DHT22;6367;52.508;13.284;2024-02-23T05:33:16;12.80;97.00
12604;DHT22;6367;52.508;13.284;2024-02-23T05:35:42;12.80;97.20
12604;DHT22;6367;52.508;13.284;2024-02-23T05:38:07;12.80;97.30
12604;DHT22;6367;52.508;13.284;2024-02-23T05:40:33;12.80;97.30
12604;DHT22;6367;52.508;13.284;2024-02-23T05:42:59;12.70;97.20
12604;DHT22;6367;52.508;13.284;2024-02-23T05:45:24;12.70;97.10
12604;DHT22;6367;52.508;13.284;2024-02-23T05:47:50;12.50;97.10
12604;DHT22;6367;52.508;13.284;2024-02-23T05:50:16;12.40;97.30
12604;DHT22;6367;52.508;13.284;2024-02-23T05:52:41;12.40;97.50
12604;DHT22;6367;52.508;13.284;2024-02-23T05:55:07;12.40;97.20
12604;DHT22;6367;52.508;13.284;2024-02-23T05:57:33;12.40;97.20
12604;DHT22;6367;52.508;13.284;2024-02-23T05:59:59;12.40;96.90
12604;DHT22;6367;52.508;13.284;2024-02-23T06:02:25;12.30;96.90
12604;DHT22;6367;52.508;13.284;2024-02-23T06:04:50;12.30;96.80
12604;DHT22;6367;52.508;13.284;2024-02-23T06:07:16;12.30;96.90
12604;DHT22;6367;52.508;13.284;2024-02-23T06:09:45;12.20;97.10
12604;DHT22;6367;52.508;13.284;2024-02-23T06:12:11;12.10;97.30
12604;DHT22;6367;52.508;13.284;2024-02-23T06:14:36;12.20;97.00
12604;DHT22;6367;52.508;13.284;2024-02-23T06:17:02;12.20;97.10
12604;DHT22;6367;52.508;13.284;2024-02-23T06:19:28;12.10;97.10
12604;DHT22;6367;52.508;13.284;2024-02-23T06:21:54;12.10;97.20
12604;DHT22;6367;52.508;13.284;2024-02-23T06:24:19;12.10;97.10
12604;DHT22;6367;52.508;13.284;2024-02-23T06:26:46;12.10;97.10
12604;DHT22;6367;52.508;13.284;2024-02-23T06:29:14;12.10;97.00
12604;DHT22;6367;52.508;13.284;2024-02-23T06:31:40;12.10;97.10
12604;DHT22;6367;52.508;13.284;2024-02-23T06:34:07;12.00;97.20
12604;DHT22;6367;52.508;13.284;2024-02-23T06:36:32;12.80;97.60
12604;DHT22;6367;52.508;13.284;2024-02-23T06:38:58;12.10;97.10
12604;DHT22;6367;52.508;13.284;2024-02-23T06:41:24;12.10;97.00
12604;DHT22;6367;52.508;13.284;2024-02-23T06:43:49;12.10;97.00
12604;DHT22;6367;52.508;13.284;2024-02-23T06:46:19;12.00;96.90
12604;DHT22;6367;52.508;13.284;2024-02-23T06:48:46;12.10;97.20
12604;DHT22;6367;52.508;13.284;2024-02-23T06:51:11;12.00;97.20
12604;DHT22;6367;52.508;13.284;2024-02-23T06:53:37;12.00;97.30
12604;DHT22;6367;52.508;13.284;2024-02-23T06:56:03;12.10;97.40
12604;DHT22;6367;52.508;13.284;2024-02-23T06:58:29;12.10;97.30
12604;DHT22;6367;52.508;13.284;2024-02-23T07:00:55;12.20;97.20
12604;DHT22;6367;52.508;13.284;2024-02-23T07:03:20;12.30;97.10
12604;DHT22;6367;52.508;13.284;2024-02-23T07:05:46;12.30;97.20
12604;DHT22;6367;52.508;13.284;2024-02-23T07:08:13;12.30;97.10
12604;DHT22;6367;52.508;13.284;2024-02-23T07:10:38;12.30;97.20
12604;DHT22;6367;52.508;13.284;2024-02-23T07:13:05;12.30;96.90
12604;DHT22;6367;52.508;13.284;2024-02-23T07:15:32;12.40;96.80
12604;DHT22;6367;52.508;13.284;2024-02-23T07:17:58;12.20;97.00
12604;DHT22;6367;52.508;13.284;2024-02-23T07:20:24;12.30;97.10
12604;DHT22;6367;52.508;13.284;2024-02-23T07:22:50;12.20;96.80
12604;DHT22;6367;52.508;13.284;2024-02-23T07:25:17;12.20;97.10
12604;DHT22;6367;52.508;13.284;2024-02-23T07:27:43;12.20;97.20
12604;DHT22;6367;52.508;13.284;2024-02-23T07:30:09;12.20;97.20
12604;DHT22;6367;52.508;13.284;2024-02-23T07:32:35;12.30;97.20
12604;DHT22;6367;52.508;13.284;2024-02-23T07:35:01;12.30;97.10
12604;DHT22;6367;52.508;13.284;2024-02-23T07:37:27;12.30;97.20
12604;DHT22;6367;52.508;13.284;2024-02-23T07:39:53;12.30;97.10
12604;DHT22;6367;52.508;13.284;2024-02-23T07:42:18;12.20;97.70
12604;DHT22;6367;52.508;13.284;2024-02-23T07:44:44;12.20;97.50
12604;DHT22;6367;52.508;13.284;2024-02-23T07:47:11;12.10;97.50
12604;DHT22;6367;52.508;13.284;2024-02-23T07:49:37;12.10;97.70
12604;DHT22;6367;52.508;13.284;2024-02-23T07:52:03;12.30;97.90
12604;DHT22;6367;52.508;13.284;2024-02-23T07:54:29;12.40;98.00
12604;DHT22;6367;52.508;13.284;2024-02-23T07:56:54;12.40;97.80
12604;DHT22;6367;52.508;13.284;2024-02-23T07:59:20;12.40;97.80
12604;DHT22;6367;52.508;13.284;2024-02-23T08:01:46;12.50;97.90
12604;DHT22;6367;52.508;13.284;2024-02-23T08:04:12;12.70;98.20
12604;DHT22;6367;52.508;13.284;2024-02-23T08:06:39;12.70;97.70
12604;DHT22;6367;52.508;13.284;2024-02-23T08:09:04;12.30;97.30
12604;DHT22;6367;52.508;13.284;2024-02-23T08:11:30;12.70;97.70
12604;DHT22;6367;52.508;13.284;2024-02-23T08:13:56;13.20;98.00
12604;DHT22;6367;52.508;13.284;2024-02-23T08:16:21;12.80;97.80
12604;DHT22;6367;52.508;13.284;2024-02-23T08:18:47;13.00;97.90
12604;DHT22;6367;52.508;13.284;2024-02-23T08:21:13;13.10;97.10
12604;DHT22;6367;52.508;13.284;2024-02-23T08:23:38;13.70;97.60
12604;DHT22;6367;52.508;13.284;2024-02-23T08:26:04;13.20;97.00
12604;DHT22;6367;52.508;13.284;2024-02-23T08:28:29;13.20;97.00
12604;DHT22;6367;52.508;13.284;2024-02-23T08:30:55;13.30;96.70
12604;DHT22;6367;52.508;13.284;2024-02-23T08:33:21;13.30;96.80
12604;DHT22;6367;52.508;13.284;2024-02-23T08:35:46;13.30;96.60
12604;DHT22;6367;52.508;13.284;2024-02-23T08:38:14;13.30;96.30
12604;DHT22;6367;52.508;13.284;2024-02-23T08:40:39;13.20;96.10
12604;DHT22;6367;52.508;13.284;2024-02-23T08:43:05;13.20;96.40
12604;DHT22;6367;52.508;13.284;2024-02-23T08:45:31;13.80;96.90
12604;DHT22;6367;52.508;13.284;2024-02-23T08:47:56;13.20;96.40
12604;DHT22;6367;52.508;13.284;2024-02-23T08:50:22;13.20;95.80
12604;DHT22;6367;52.508;13.284;2024-02-23T08:52:48;13.20;95.90
12604;DHT22;6367;52.508;13.284;2024-02-23T08:55:13;13.20;95.70
12604;DHT22;6367;52.508;13.284;2024-02-23T08:57:39;13.10;95.70
12604;DHT22;6367;52.508;13.284;2024-02-23T09:00:05;13.10;95.90
12604;DHT22;6367;52.508;13.284;2024-02-23T09:02:31;13.10;96.30
12604;DHT22;6367;52.508;13.284;2024-02-23T09:05:01;13.00;96.00
12604;DHT22;6367;52.508;13.284;2024-02-23T09:07:26;13.20;96.30
12604;DHT22;6367;52.508;13.284;2024-02-23T09:09:52;13.30;96.30
12604;DHT22;6367;52.508;13.284;2024-02-23T09:12:19;13.40;95.60
12604;DHT22;6367;52.508;13.284;2024-02-23T09:14:44;13.40;95.10
12604;DHT22;6367;52.508;13.284;2024-02-23T09:17:11;13.30;94.50
12604;DHT22;6367;52.508;13.284;2024-02-23T09:19:38;13.30;94.80
12604;DHT22;6367;52.508;13.284;2024-02-23T09:22:04;13.40;94.60
12604;DHT22;6367;52.508;13.284;2024-02-23T09:24:29;13.40;94.90
12604;DHT22;6367;52.508;13.284;2024-02-23T09:26:55;13.50;94.50
12604;DHT22;6367;52.508;13.284;2024-02-23T09:29:21;13.70;94.70
12604;DHT22;6367;52.508;13.284;2024-02-23T09:31:47;13.70;94.30
12604;DHT22;6367;52.508;13.284;2024-02-23T09:34:13;13.80;93.90
12604;DHT22;6367;52.508;13.284;2024-02-23T09:36:39;13.70;93.20
12604;DHT22;6367;52.508;13.284;2024-02-23T09:39:04;13.80;93.50
12604;DHT22;6367;52.508;13.284;2024-02-23T09:41:30;13.70;92.80
12604;DHT22;6367;52.508;13.284;2024-02-23T09:44:00;13.70;93.20
12604;DHT22;6367;52.508;13.284;2024-02-23T09:46:26;13.70;93.60
12604;DHT22;6367;52.508;13.284;2024-02-23T09:48:53;13.80;93.80
12604;DHT22;6367;52.508;13.284;2024-02-23T09:51:21;13.80;94.00
12604;DHT22;6367;52.508;13.284;2024-02-23T09:53:49;13.90;93.40
12604;DHT22;6367;52.508;13.284;2024-02-23T09:56:16;14.00;93.30
12604;DHT22;6367;52.508;13.284;2024-02-23T09:58:44;14.20;92.40
12604;DHT22;6367;52.508;13.284;2024-02-23T10:01:10;14.10;92.20
12604;DHT22;6367;52.508;13.284;2024-02-23T10:03:37;13.90;92.30
12604;DHT22;6367;52.508;13.284;2024-02-23T10:06:04;13.80;92.80
12604;DHT22;6367;52.508;13.284;2024-02-23T10:08:30;13.80;93.10
12604;DHT22;6367;52.508;13.284;2024-02-23T10:10:56;13.90;93.30
12604;DHT22;6367;52.508;13.284;2024-02-23T10:13:23;13.90;93.40
12604;DHT22;6367;52.508;13.284;2024-02-23T10:15:52;12.90;92.90
12604;DHT22;6367;52.508;13.284;2024-02-23T10:18:18;13.80;93.70
12604;DHT22;6367;52.508;13.284;2024-02-23T10:20:44;13.80;94.00
12604;DHT22;6367;52.508;13.284;2024-02-23T10:23:10;13.80;94.10
12604;DHT22;6367;52.508;13.284;2024-02-23T10:25:36;13.80;94.20
12604;DHT22;6367;52.508;13.284;2024-02-23T10:28:06;13.90;94.10
12604;DHT22;6367;52.508;13.284;2024-02-23T10:30:32;14.30;94.10
12604;DHT22;6367;52.508;13.284;2024-02-23T10:32:58;13.80;94.00
12604;DHT22;6367;52.508;13.284;2024-02-23T10:35:25;13.90;94.20
12604;DHT22;6367;52.508;13.284;2024-02-23T10:37:53;13.90;94.00
12604;DHT22;6367;52.508;13.284;2024-02-23T10:40:20;14.00;94.30
12604;DHT22;6367;52.508;13.284;2024-02-23T10:42:48;14.00;94.10
12604;DHT22;6367;52.508;13.284;2024-02-23T10:45:20;14.10;93.50
12604;DHT22;6367;52.508;13.284;2024-02-23T10:47:48;14.20;92.60
12604;DHT22;6367;52.508;13.284;2024-02-23T10:50:14;14.20;92.30
12604;DHT22;6367;52.508;13.284;2024-02-23T10:52:42;14.10;92.10
12604;DHT22;6367;52.508;13.284;2024-02-23T10:55:10;14.10;92.00
12604;DHT22;6367;52.508;13.284;2024-02-23T10:57:36;14.10;91.60
12604;DHT22;6367;52.508;13.284;2024-02-23T11:00:05;14.10;91.50
12604;DHT22;6367;52.508;13.284;2024-02-23T11:02:41;14.10;91.70
12604;DHT22;6367;52.508;13.284;2024-02-23T11:05:09;14.10;92.20
12604;DHT22;6367;52.508;13.284;2024-02-23T11:07:40;14.10;92.30
12604;DHT22;6367;52.508;13.284;2024-02-23T11:10:07;14.00;92.90
12604;DHT22;6367;52.508;13.284;2024-02-23T11:12:35;14.10;92.70
12604;DHT22;6367;52.508;13.284;2024-02-23T11:15:01;14.10;92.20
12604;DHT22;6367;52.508;13.284;2024-02-23T11:17:31;14.20;91.60
12604;DHT22;6367;52.508;13.284;2024-02-23T11:19:58;14.00;91.10
12604;DHT22;6367;52.508;13.284;2024-02-23T11:22:36;13.80;91.20
12604;DHT22;6367;52.508;13.284;2024-02-23T11:25:04;13.80;91.70
12604;DHT22;6367;52.508;13.284;2024-02-23T11:27:37;13.90;92.00
12604;DHT22;6367;52.508;13.284;2024-02-23T11:30:07;13.90;91.70
12604;DHT22;6367;52.508;13.284;2024-02-23T11:32:45;13.90;91.40
12604;DHT22;6367;52.508;13.284;2024-02-23T11:35:14;13.80;91.10
12604;DHT22;6367;52.508;13.284;2024-02-23T11:40:13;14.00;91.50
12604;DHT22;6367;52.508;13.284;2024-02-23T11:42:43;14.10;91.30
12604;DHT22;6367;52.508;13.284;2024-02-23T11:45:11;14.30;91.00
12604;DHT22;6367;52.508;13.284;2024-02-23T11:47:37;14.30;91.00
12604;DHT22;6367;52.508;13.284;2024-02-23T11:50:06;14.40;91.20
12604;DHT22;6367;52.508;13.284;2024-02-23T11:52:32;14.40;90.90
12604;DHT22;6367;52.508;13.284;2024-02-23T11:54:59;14.50;91.00
12604;DHT22;6367;52.508;13.284;2024-02-23T11:57:24;14.30;90.50
12604;DHT22;6367;52.508;13.284;2024-02-23T11:59:51;14.20;90.80
12604;DHT22;6367;52.508;13.284;2024-02-23T12:02:17;14.20;91.00
12604;DHT22;6367;52.508;13.284;2024-02-23T12:04:43;14.30;91.20
12604;DHT22;6367;52.508;13.284;2024-02-23T12:07:09;14.20;91.00
12604;DHT22;6367;52.508;13.284;2024-02-23T12:09:35;14.20;90.80
12604;DHT22;6367;52.508;13.284;2024-02-23T12:12:01;14.20;90.90
12604;DHT22;6367;52.508;13.284;2024-02-23T12:14:27;14.30;91.00
12604;DHT22;6367;52.508;13.284;2024-02-23T12:16:53;14.20;90.80
12604;DHT22;6367;52.508;13.284;2024-02-23T12:19:19;14.30;90.10
12604;DHT22;6367;52.508;13.284;2024-02-23T12:21:47;14.20;90.30
12604;DHT22;6367;52.508;13.284;2024-02-23T12:24:13;14.10;90.40
12604;DHT22;6367;52.508;13.284;2024-02-23T12:26:39;14.10;90.30
12604;DHT22;6367;52.508;13.284;2024-02-23T12:29:05;13.90;90.50
12604;DHT22;6367;52.508;13.284;2024-02-23T12:31:32;13.80;90.90
12604;DHT22;6367;52.508;13.284;2024-02-23T12:33:58;13.70;91.20
12604;DHT22;6367;52.508;13.284;2024-02-23T12:36:24;13.60;90.90
12604;DHT22;6367;52.508;13.284;2024-02-23T12:38:49;13.70;91.20
12604;DHT22;6367;52.508;13.284;2024-02-23T12:41:15;13.70;90.60
12604;DHT22;6367;52.508;13.284;2024-02-23T12:43:41;13.70;90.80
12604;DHT22;6367;52.508;13.284;2024-02-23T12:46:06;13.60;90.80
12604;DHT22;6367;52.508;13.284;2024-02-23T12:48:35;13.60;90.90
12604;DHT22;6367;52.508;13.284;2024-02-23T12:51:00;13.70;90.50
12604;DHT22;6367;52.508;13.284;2024-02-23T12:53:37;13.60;90.60
12604;DHT22;6367;52.508;13.284;2024-02-23T12:56:04;13.70;90.60
12604;DHT22;6367;52.508;13.284;2024-02-23T12:58:31;13.60;90.80
12604;DHT22;6367;52.508;13.284;2024-02-23T13:00:57;13.70;90.70
12604;DHT22;6367;52.508;13.284;2024-02-23T13:03:27;13.80;90.40
12604;DHT22;6367;52.508;13.284;2024-02-23T13:05:56;13.80;90.70
12604;DHT22;6367;52.508;13.284;2024-02-23T13:08:22;13.70;90.60
12604;DHT22;6367;52.508;13.284;2024-02-23T13:10:49;13.60;90.50
12604;DHT22;6367;52.508;13.284;2024-02-23T13:13:14;13.60;90.80
12604;DHT22;6367;52.508;13.284;2024-02-23T13:15:41;13.40;91.10
12604;DHT22;6367;52.508;13.284;2024-02-23T13:18:07;13.40;90.90
12604;DHT22;6367;52.508;13.284;2024-02-23T13:20:33;13.30;91.10
12604;DHT22;6367;52.508;13.284;2024-02-23T13:22:58;13.30;91.50
12604;DHT22;6367;52.508;13.284;2024-02-23T13:25:24;13.30;91.80
12604;DHT22;6367;52.508;13.284;2024-02-23T13:27:50;13.30;91.80
12604;DHT22;6367;52.508;13.284;2024-02-23T13:30:15;13.30;91.90
12604;DHT22;6367;52.508;13.284;2024-02-23T13:32:41;13.30;91.70
12604;DHT22;6367;52.508;13.284;2024-02-23T13:35:07;12.70;91.40
12604;DHT22;6367;52.508;13.284;2024-02-23T13:37:34;13.10;91.50
12604;DHT22;6367;52.508;13.284;2024-02-23T13:40:00;13.00;91.70
12604;DHT22;6367;52.508;13.284;2024-02-23T13:42:26;12.90;91.40
12604;DHT22;6367;52.508;13.284;2024-02-23T13:44:52;12.70;91.70
12604;DHT22;6367;52.508;13.284;2024-02-23T13:47:17;12.70;91.70
12604;DHT22;6367;52.508;13.284;2024-02-23T13:49:43;12.70;91.80
12604;DHT22;6367;52.508;13.284;2024-02-23T13:52:09;12.70;92.00
12604;DHT22;6367;52.508;13.284;2024-02-23T13:54:34;12.70;91.80
12604;DHT22;6367;52.508;13.284;2024-02-23T13:57:00;12.70;91.90
12604;DHT22;6367;52.508;13.284;2024-02-23T13:59:25;12.80;91.90
12604;DHT22;6367;52.508;13.284;2024-02-23T14:01:51;12.80;91.60
12604;DHT22;6367;52.508;13.284;2024-02-23T14:04:17;12.80;91.80
12604;DHT22;6367;52.508;13.284;2024-02-23T14:06:42;12.80;91.80
12604;DHT22;6367;52.508;13.284;2024-02-23T14:09:09;12.70;91.90
12604;DHT22;6367;52.508;13.284;2024-02-23T14:11:35;12.80;92.20
12604;DHT22;6367;52.508;13.284;2024-02-23T14:14:01;12.80;91.80
12604;DHT22;6367;52.508;13.284;2024-02-23T14:16:28;12.70;91.60
12604;DHT22;6367;52.508;13.284;2024-02-23T14:18:54;12.70;91.90
12604;DHT22;6367;52.508;13.284;2024-02-23T14:21:20;13.00;91.80
12604;DHT22;6367;52.508;13.284;2024-02-23T14:23:48;13.00;91.60
12604;DHT22;6367;52.508;13.284;2024-02-23T14:26:13;13.00;91.50
12604;DHT22;6367;52.508;13.284;2024-02-23T14:28:39;12.90;90.90
12604;DHT22;6367;52.508;13.284;2024-02-23T14:31:05;12.80;91.20
12604;DHT22;6367;52.508;13.284;2024-02-23T14:33:32;12.80;91.40
12604;DHT22;6367;52.508;13.284;2024-02-23T14:35:57;12.80;91.30
12604;DHT22;6367;52.508;13.284;2024-02-23T14:38:23;12.70;91.40
12604;DHT22;6367;52.508;13.284;2024-02-23T14:40:49;12.70;91.20
12604;DHT22;6367;52.508;13.284;2024-02-23T14:43:15;12.70;91.10
12604;DHT22;6367;52.508;13.284;2024-02-23T14:45:40;12.70;90.90
12604;DHT22;6367;52.508;13.284;2024-02-23T14:48:07;12.60;91.30
12604;DHT22;6367;52.508;13.284;2024-02-23T14:50:33;12.50;91.50
12604;DHT22;6367;52.508;13.284;2024-02-23T14:52:59;12.60;91.30
12604;DHT22;6367;52.508;13.284;2024-02-23T14:55:25;12.50;91.70
12604;DHT22;6367;52.508;13.284;2024-02-23T14:57:50;12.50;92.10
12604;DHT22;6367;52.508;13.284;2024-02-23T15:00:16;12.20;91.80
12604;DHT22;6367;52.508;13.284;2024-02-23T15:02:42;12.60;92.00
12604;DHT22;6367;52.508;13.284;2024-02-23T15:05:08;12.60;91.80
12604;DHT22;6367;52.508;13.284;2024-02-23T15:07:34;12.70;91.80
12604;DHT22;6367;52.508;13.284;2024-02-23T15:10:01;12.60;92.00
12604;DHT22;6367;52.508;13.284;2024-02-23T15:12:31;12.60;92.10
12604;DHT22;6367;52.508;13.284;2024-02-23T15:14:57;11.90;91.80
12604;DHT22;6367;52.508;13.284;2024-02-23T15:17:23;12.60;92.20
12604;DHT22;6367;52.508;13.284;2024-02-23T15:19:48;12.60;92.20
12604;DHT22;6367;52.508;13.284;2024-02-23T15:22:15;12.50;92.40
12604;DHT22;6367;52.508;13.284;2024-02-23T15:24:44;12.50;92.70
12604;DHT22;6367;52.508;13.284;2024-02-23T15:27:11;12.60;93.10